Time;durP1;ratioP1;P1;durP2;ratioP2;P2;SDS_P1;SDS_P2;PMS_P1;PMS_P2;Temp;Humidity;BMP_temperature;BMP_pressure;BME280_temperature;BME280_humidity;BME280_pressure;Samples;Min_cycle;Max_cycle;Signal;HPM_P1;HPM_P2
2023/01/05 00:02:02;;;;;;;0.20;0.10;;;10.40;99.90;;;;;;20970687;28;20800;-71
2023/01/05 00:22:33;;;;;;;0.20;0.10;;;10.30;99.90;;;;;;20986452;28;20467;-72
2023/01/05 00:32:38;;;;;;;0.20;0.10;;;10.40;99.90;;;;;;20917357;28;20424;-71
2023/01/05 00:42:42;;;;;;;0.20;0.10;;;10.40;99.90;;;;;;20967219;28;20946;-71
2023/01/05 00:52:48;;;;;;;0.20;0.10;;;10.30;99.90;;;;;;20984562;28;20765;-72
2023/01/05 01:03:10;;;;;;;0.20;0.10;;;10.30;99.90;;;;;;20983601;28;20406;-72
2023/01/05 01:13:15;;;;;;;0.20;0.10;;;9.90;99.90;;;;;;20964662;28;20390;-74
2023/01/05 01:23:19;;;;;;;0.20;0.10;;;9.90;99.90;;;;;;20979266;28;20963;-72
2023/01/05 01:33:25;;;;;;;0.20;0.10;;;9.70;99.90;;;;;;20965245;28;20403;-71
2023/01/05 01:43:44;;;;;;;0.20;0.08;;;9.90;99.90;;;;;;20919852;28;20474;-71
2023/01/05 01:53:52;;;;;;;0.20;0.10;;;10.10;99.90;;;;;;20962639;28;21049;-71
2023/01/05 02:03:56;;;;;;;0.20;0.10;;;10.20;99.90;;;;;;20979308;28;20947;-71
2023/01/05 02:14:15;;;;;;;0.20;0.10;;;9.90;99.90;;;;;;20979143;28;20398;-72
2023/01/05 02:25:02;;;;;;;0.20;0.10;;;9.90;99.90;;;;;;20978654;28;20421;-71
2023/01/05 02:35:14;;;;;;;0.20;0.10;;;9.70;99.90;;;;;;20977748;28;20391;-73
2023/01/05 02:45:17;;;;;;;0.20;0.10;;;9.60;99.90;;;;;;20991408;28;20418;-70
2023/01/05 02:55:27;;;;;;;0.20;0.10;;;9.40;99.90;;;;;;20993683;28;20441;-70
2023/01/05 03:05:36;;;;;;;0.20;0.10;;;9.60;99.90;;;;;;20992726;28;20730;-70
2023/01/05 03:15:44;;;;;;;0.20;0.10;;;9.80;99.90;;;;;;20992589;28;20402;-70
2023/01/05 03:36:13;;;;;;;0.20;0.10;;;9.40;99.90;;;;;;20989720;28;20803;-70
2023/01/05 03:46:20;;;;;;;0.20;0.10;;;9.40;99.90;;;;;;20989646;28;20506;-71
2023/01/05 03:56:25;;;;;;;0.20;0.10;;;9.40;99.90;;;;;;20988074;28;20468;-71
2023/01/05 04:06:29;;;;;;;0.20;0.10;;;9.50;99.90;;;;;;20987144;28;20539;-71
2023/01/05 04:16:35;;;;;;;0.20;0.10;;;9.50;99.90;;;;;;20987547;28;20746;-71
2023/01/05 04:26:40;;;;;;;0.20;0.10;;;9.20;99.90;;;;;;20986655;28;20406;-71
2023/01/05 04:36:49;;;;;;;0.20;0.10;;;9.00;99.90;;;;;;20984968;28;20398;-71
2023/01/05 04:46:53;;;;;;;0.20;0.10;;;9.20;99.90;;;;;;20983626;28;20567;-71
2023/01/05 04:56:58;;;;;;;0.20;0.10;;;9.30;99.90;;;;;;20984080;28;20402;-72
2023/01/05 05:07:02;;;;;;;0.20;0.10;;;9.30;99.90;;;;;;20973838;28;20477;-72
2023/01/05 05:17:07;;;;;;;0.20;0.10;;;9.60;99.90;;;;;;20926994;28;20406;-73
2023/01/05 05:27:11;;;;;;;0.20;0.10;;;9.80;99.90;;;;;;20881242;28;20416;-72
2023/01/05 05:37:16;;;;;;;0.20;0.10;;;9.80;99.90;;;;;;20880089;28;20436;-74
2023/01/05 05:47:20;;;;;;;0.20;0.10;;;9.70;99.90;;;;;;20917312;28;20470;-72
2023/01/05 05:57:26;;;;;;;0.20;0.10;;;9.90;99.90;;;;;;20961810;28;20390;-72
2023/01/05 06:07:29;;;;;;;0.20;0.10;;;10.00;99.90;;;;;;20978964;28;20414;-72
2023/01/05 06:17:35;;;;;;;0.20;0.10;;;9.90;99.90;;;;;;20978773;28;20409;-72
2023/01/05 06:27:38;;;;;;;0.20;0.10;;;9.90;99.90;;;;;;20976893;28;20411;-72
2023/01/05 06:37:44;;;;;;;0.20;0.10;;;9.90;99.90;;;;;;20977771;28;20868;-71
2023/01/05 06:47:48;;;;;;;0.20;0.10;;;9.90;99.90;;;;;;20975592;28;20417;-72
2023/01/05 06:57:53;;;;;;;0.20;0.10;;;9.90;99.90;;;;;;20958751;28;20469;-73
2023/01/05 07:08:03;;;;;;;0.20;0.10;;;9.90;99.90;;;;;;20972640;28;20535;-70
2023/01/05 07:18:09;;;;;;;0.20;0.10;;;9.90;99.90;;;;;;20975685;28;20403;-73
2023/01/05 07:28:12;;;;;;;0.20;0.10;;;10.00;99.90;;;;;;20983155;28;20475;-72
2023/01/05 07:38:18;;;;;;;0.20;0.10;;;10.10;99.90;;;;;;20989853;28;20413;-72
2023/01/05 07:48:22;;;;;;;0.20;0.07;;;10.10;99.90;;;;;;20988235;28;20406;-71
2023/01/05 07:58:28;;;;;;;0.20;0.10;;;10.30;99.90;;;;;;20969284;28;20867;-72
2023/01/05 08:08:32;;;;;;;0.20;0.10;;;10.60;99.90;;;;;;20951144;28;20766;-71
2023/01/05 08:18:37;;;;;;;0.20;0.10;;;10.90;99.90;;;;;;20985078;28;20412;-71
2023/01/05 08:28:41;;;;;;;0.20;0.10;;;11.20;99.90;;;;;;20985000;28;20501;-70
2023/01/05 08:38:48;;;;;;;7.60;7.30;;;11.30;99.90;;;;;;20965335;28;20406;-70
2023/01/05 08:48:53;;;;;;;0.20;0.10;;;11.60;99.90;;;;;;20983810;28;20412;-71
2023/01/05 08:58:59;;;;;;;0.20;0.10;;;11.80;99.90;;;;;;20982711;28;20885;-71
2023/01/05 09:09:04;;;;;;;0.20;0.10;;;12.20;99.90;;;;;;20978179;28;20410;-70
2023/01/05 09:19:10;;;;;;;0.20;0.00;;;12.50;99.90;;;;;;20980229;28;20956;-69
2023/01/05 09:29:14;;;;;;;0.20;0.10;;;12.90;99.90;;;;;;20962492;28;20425;-70
2023/01/05 09:39:19;;;;;;;0.20;0.10;;;13.30;99.90;;;;;;20978432;28;20899;-70
2023/01/05 09:49:24;;;;;;;0.20;0.10;;;13.80;99.90;;;;;;20965560;28;20413;-68
2023/01/05 09:59:33;;;;;;;0.20;0.10;;;14.30;99.90;;;;;;20911417;28;20403;-70
2023/01/05 10:09:39;;;;;;;0.20;0.10;;;14.50;99.90;;;;;;20858500;28;20412;-67
2023/01/05 10:19:45;;;;;;;0.20;0.07;;;14.70;99.90;;;;;;20858028;28;20395;-69
2023/01/05 10:30:13;;;;;;;0.20;0.00;;;15.00;99.90;;;;;;20891646;28;20415;-68
2023/01/05 10:40:32;;;;;;;0.20;0.10;;;15.60;99.90;;;;;;20873213;28;20434;-72
2023/01/05 10:50:38;;;;;;;0.20;0.10;;;16.00;99.90;;;;;;20872984;28;20411;-69
2023/01/05 11:00:44;;;;;;;0.20;0.10;;;16.80;99.90;;;;;;20895730;28;20418;-69
2023/01/05 11:10:52;;;;;;;0.20;0.10;;;17.50;99.90;;;;;;20888151;28;20423;-70
2023/01/05 11:21:17;;;;;;;0.20;0.08;;;17.30;99.90;;;;;;20886916;28;20407;-69
2023/01/05 11:31:21;;;;;;;0.20;0.03;;;17.30;99.90;;;;;;20886026;28;20419;-69
2023/01/05 11:41:27;;;;;;;0.20;0.00;;;18.00;99.90;;;;;;20903565;28;20491;-68
2023/01/05 11:51:35;;;;;;;0.20;0.10;;;18.40;99.90;;;;;;20903497;28;20519;-69
2023/01/05 12:02:01;;;;;;;0.20;0.10;;;18.60;99.90;;;;;;20901635;28;20403;-68
2023/01/05 12:12:17;;;;;;;0.20;0.08;;;18.90;99.90;;;;;;20896535;28;20925;-69
2023/01/05 12:22:56;;;;;;;0.20;0.00;;;19.90;99.90;;;;;;20870937;28;20395;-69
2023/01/05 12:33:38;;;;;;;0.20;0.00;;;20.20;99.90;;;;;;20871911;28;20416;-69
2023/01/05 12:44:18;;;;;;;0.20;0.00;;;20.50;99.90;;;;;;20893768;28;20530;-68
2023/01/05 12:54:44;;;;;;;0.20;0.00;;;20.80;99.90;;;;;;20876068;28;20763;-70
2023/01/05 13:04:55;;;;;;;0.20;0.00;;;20.50;99.90;;;;;;20803297;28;2096525;-68
2023/01/05 13:15:12;;;;;;;0.20;0.00;;;20.80;99.90;;;;;;20881303;28;20458;-68
2023/01/05 13:25:19;;;;;;;0.20;0.10;;;20.50;99.90;;;;;;20877554;28;20415;-69
2023/01/05 13:35:44;;;;;;;0.20;0.10;;;19.60;99.90;;;;;;20878128;28;20766;-69
2023/01/05 13:46:14;;;;;;;0.20;0.00;;;19.10;99.90;;;;;;20889679;28;20731;-71
2023/01/05 13:56:23;;;;;;;0.20;0.00;;;19.20;99.90;;;;;;20876013;28;20919;-69
2023/01/05 14:06:48;;;;;;;0.20;0.07;;;19.00;99.90;;;;;;20858404;28;20419;-70
2023/01/05 14:16:56;;;;;;;0.20;0.10;;;19.70;99.90;;;;;;20875301;28;20407;-70
2023/01/05 14:27:04;;;;;;;0.20;0.00;;;19.60;99.90;;;;;;20875466;28;20400;-71
2023/01/05 14:37:22;;;;;;;0.20;0.10;;;20.60;99.90;;;;;;20884680;28;20402;-68
2023/01/05 14:47:57;;;;;;;0.20;0.00;;;20.70;99.90;;;;;;20890849;28;20411;-70
2023/01/05 14:58:03;;;;;;;0.20;0.07;;;19.30;99.90;;;;;;20889557;28;20396;-70
2023/01/05 15:08:20;;;;;;;0.20;0.10;;;17.40;99.90;;;;;;20906530;28;20473;-71
2023/01/05 15:19:02;;;;;;;0.20;0.00;;;17.80;99.90;;;;;;20905748;28;20878;-69
2023/01/05 15:29:34;;;;;;;0.20;0.10;;;18.70;99.90;;;;;;20852005;28;20970;-70
2023/01/05 15:39:46;;;;;;;0.20;0.10;;;18.90;99.90;;;;;;20866156;28;20470;-70
2023/01/05 15:49:56;;;;;;;0.20;0.10;;;18.80;99.90;;;;;;20976805;28;20410;-69
2023/01/05 16:00:00;;;;;;;0.20;0.08;;;18.00;99.90;;;;;;20964022;28;20390;-69
2023/01/05 16:10:26;;;;;;;0.20;0.00;;;17.20;99.90;;;;;;20961485;28;20417;-69
2023/01/05 16:20:31;;;;;;;0.20;0.10;;;15.80;99.90;;;;;;20962393;28;20404;-70
2023/01/05 16:30:38;;;;;;;0.20;0.10;;;15.00;99.90;;;;;;20977491;28;20422;-72
2023/01/05 16:41:06;;;;;;;0.20;0.10;;;14.80;99.90;;;;;;20955671;28;20425;-70
2023/01/05 16:51:14;;;;;;;0.20;0.10;;;14.60;99.90;;;;;;20894707;28;20419;-69
2023/01/05 17:01:24;;;;;;;0.20;0.10;;;13.70;99.90;;;;;;20875588;28;20488;-69
2023/01/05 17:21:57;;;;;;;0.20;0.10;;;12.10;99.90;;;;;;20969018;28;20418;-70
2023/01/05 17:32:02;;;;;;;0.20;0.00;;;11.90;99.90;;;;;;20950519;28;20527;-70
2023/01/05 17:52:27;;;;;;;0.20;0.10;;;10.90;99.90;;;;;;20918796;28;20446;-69
2023/01/05 18:02:31;;;;;;;0.20;0.10;;;10.80;99.90;;;;;;20973228;28;20479;-70
2023/01/05 18:12:37;;;;;;;0.20;0.10;;;10.60;99.90;;;;;;20954150;28;20406;-68
2023/01/05 18:22:41;;;;;;;0.20;0.10;;;10.30;99.90;;;;;;20971011;28;20390;-70
2023/01/05 18:32:47;;;;;;;0.20;0.00;;;10.20;99.90;;;;;;20951927;28;20589;-69
2023/01/05 18:42:51;;;;;;;0.20;0.10;;;10.00;99.90;;;;;;20954518;28;20398;-71
2023/01/05 18:52:57;;;;;;;0.20;0.10;;;9.60;99.90;;;;;;20970086;28;20442;-70
2023/01/05 19:03:01;;;;;;;0.20;0.10;;;9.70;99.90;;;;;;20960543;28;20547;-68
2023/01/05 19:13:06;;;;;;;0.20;0.10;;;9.80;99.90;;;;;;20951567;28;20417;-70
2023/01/05 19:23:10;;;;;;;0.20;0.10;;;9.50;99.90;;;;;;20976351;28;20833;-70
2023/01/05 19:33:15;;;;;;;0.20;0.10;;;9.80;99.90;;;;;;20981846;28;20415;-70
2023/01/05 19:43:19;;;;;;;0.20;0.10;;;11.10;99.90;;;;;;20982249;28;20410;-70
2023/01/05 19:53:43;;;;;;;0.20;0.10;;;11.40;99.90;;;;;;20978956;28;20421;-71
2023/01/05 20:03:47;;;;;;;0.20;0.10;;;10.20;99.90;;;;;;20917232;28;20413;-70
2023/01/05 20:14:12;;;;;;;0.20;0.10;;;10.10;99.90;;;;;;20963989;28;20410;-69
2023/01/05 20:24:18;;;;;;;0.20;0.10;;;9.40;99.90;;;;;;20964358;28;20394;-72
2023/01/05 20:34:28;;;;;;;0.20;0.10;;;9.00;99.90;;;;;;20959235;28;20414;-71
2023/01/05 20:44:34;;;;;;;0.20;0.10;;;8.80;99.90;;;;;;20983440;28;20828;-70
2023/01/05 20:54:58;;;;;;;0.20;0.10;;;9.10;99.90;;;;;;20904359;28;20400;-69
2023/01/05 21:15:26;;;;;;;0.20;0.10;;;9.60;99.90;;;;;;20962674;28;20406;-71
2023/01/05 21:25:30;;;;;;;0.20;0.10;;;9.50;99.90;;;;;;20961121;28;20777;-72
2023/01/05 21:35:55;;;;;;;0.20;0.10;;;9.90;99.90;;;;;;20979339;28;20406;-71
2023/01/05 21:46:17;;;;;;;0.20;0.10;;;10.30;99.90;;;;;;20937381;28;20429;-66
2023/01/05 21:56:25;;;;;;;0.20;0.10;;;9.80;99.90;;;;;;20952772;28;20386;-67
2023/01/05 22:06:29;;;;;;;0.20;0.00;;;9.00;99.90;;;;;;20977786;28;20508;-66
2023/01/05 22:16:35;;;;;;;0.20;0.10;;;9.20;99.90;;;;;;20958832;28;20398;-67
2023/01/05 22:26:39;;;;;;;0.20;0.10;;;9.50;99.90;;;;;;20978193;28;20900;-71
2023/01/05 22:37:03;;;;;;;0.20;0.10;;;9.60;99.90;;;;;;20977796;28;20402;-72
2023/01/05 22:47:07;;;;;;;0.20;0.10;;;9.40;99.90;;;;;;20944501;28;20438;-71
2023/01/05 22:57:12;;;;;;;0.20;0.10;;;9.20;99.90;;;;;;20959416;28;20402;-71
2023/01/05 23:07:19;;;;;;;0.20;0.10;;;8.30;99.90;;;;;;20991525;28;20472;-72
2023/01/05 23:17:24;;;;;;;0.20;0.10;;;8.10;99.90;;;;;;20974299;28;20923;-72
2023/01/05 23:27:28;;;;;;;0.20;0.10;;;7.90;99.90;;;;;;20991599;28;20421;-72
2023/01/05 23:37:33;;;;;;;0.20;0.10;;;7.90;99.90;;;;;;20990632;28;20781;-71
2023/01/05 23:47:37;;;;;;;0.20;0.10;;;7.80;99.90;;;;;;20970311;28;20459;-70
2023/01/05 23:57:42;;;;;;;0.20;0.10;;;7.40;99.90;;;;;;20988805;28;20396;-70
